sensor_id;sensor_type;location;lat;lon;timestamp;pressure;altitude;pressure_sealevel;temperature;humidity
36234;BME280;43467;50.890;5.982;2024-01-30T00:02:21;101252.00;;;12.30;65.99
36234;BME280;43467;50.890;5.982;2024-01-30T00:04:47;101257.22;;;12.32;66.12
36234;BME280;43467;50.890;5.982;2024-01-30T00:07:12;101246.56;;;12.33;65.92
36234;BME280;43467;50.890;5.982;2024-01-30T00:09:38;101250.88;;;12.36;65.92
36234;BME280;43467;50.890;5.982;2024-01-30T00:12:05;101244.69;;;12.35;65.84
36234;BME280;43467;50.890;5.982;2024-01-30T00:14:31;101242.63;;;12.43;65.79
36234;BME280;43467;50.890;5.982;2024-01-30T00:16:56;101239.13;;;12.43;65.73
36234;BME280;43467;50.890;5.982;2024-01-30T00:19:22;101240.81;;;12.45;65.65
36234;BME280;43467;50.890;5.982;2024-01-30T00:21:47;101236.56;;;12.40;65.66
36234;BME280;43467;50.890;5.982;2024-01-30T00:24:13;101229.56;;;12.39;65.77
36234;BME280;43467;50.890;5.982;2024-01-30T00:26:38;101233.91;;;12.40;65.88
36234;BME280;43467;50.890;5.982;2024-01-30T00:29:03;101229.44;;;12.42;65.48
36234;BME280;43467;50.890;5.982;2024-01-30T00:31:29;101227.50;;;12.45;65.54
36234;BME280;43467;50.890;5.982;2024-01-30T00:33:54;101229.25;;;12.46;65.48
36234;BME280;43467;50.890;5.982;2024-01-30T00:36:20;101231.97;;;12.45;65.52
36234;BME280;43467;50.890;5.982;2024-01-30T00:38:45;101237.41;;;12.42;65.45
36234;BME280;43467;50.890;5.982;2024-01-30T00:41:10;101225.06;;;12.39;65.55
36234;BME280;43467;50.890;5.982;2024-01-30T00:43:36;101225.16;;;12.38;65.86
36234;BME280;43467;50.890;5.982;2024-01-30T00:46:02;101222.78;;;12.30;65.42
36234;BME280;43467;50.890;5.982;2024-01-30T00:48:28;101230.63;;;12.33;65.49
36234;BME280;43467;50.890;5.982;2024-01-30T00:50:53;101221.09;;;12.28;65.93
36234;BME280;43467;50.890;5.982;2024-01-30T00:53:19;101229.28;;;12.22;66.32
36234;BME280;43467;50.890;5.982;2024-01-30T00:55:45;101232.91;;;12.19;66.19
36234;BME280;43467;50.890;5.982;2024-01-30T00:58:10;101234.31;;;12.06;66.71
36234;BME280;43467;50.890;5.982;2024-01-30T01:00:35;101232.56;;;12.05;66.97
36234;BME280;43467;50.890;5.982;2024-01-30T01:03:01;101229.94;;;12.03;67.00
36234;BME280;43467;50.890;5.982;2024-01-30T01:05:27;101226.34;;;12.06;66.88
36234;BME280;43467;50.890;5.982;2024-01-30T01:07:52;101229.03;;;12.04;66.61
36234;BME280;43467;50.890;5.982;2024-01-30T01:10:18;101223.84;;;12.01;66.94
36234;BME280;43467;50.890;5.982;2024-01-30T01:12:44;101231.81;;;12.01;66.83
36234;BME280;43467;50.890;5.982;2024-01-30T01:15:10;101218.53;;;12.01;66.99
36234;BME280;43467;50.890;5.982;2024-01-30T01:17:36;101220.31;;;12.01;67.12
36234;BME280;43467;50.890;5.982;2024-01-30T01:20:02;101220.25;;;12.02;66.99
36234;BME280;43467;50.890;5.982;2024-01-30T01:22:28;101225.50;;;12.04;66.86
36234;BME280;43467;50.890;5.982;2024-01-30T01:24:54;101226.22;;;12.09;66.69
36234;BME280;43467;50.890;5.982;2024-01-30T01:27:19;101224.47;;;12.08;66.74
36234;BME280;43467;50.890;5.982;2024-01-30T01:29:44;101226.22;;;12.09;66.71
36234;BME280;43467;50.890;5.982;2024-01-30T01:32:10;101220.00;;;12.10;66.68
36234;BME280;43467;50.890;5.982;2024-01-30T01:34:36;101228.03;;;12.07;66.92
36234;BME280;43467;50.890;5.982;2024-01-30T01:37:01;101226.38;;;12.04;66.88
36234;BME280;43467;50.890;5.982;2024-01-30T01:39:26;101214.94;;;12.02;66.88
36234;BME280;43467;50.890;5.982;2024-01-30T01:41:52;101219.50;;;11.99;67.17
36234;BME280;43467;50.890;5.982;2024-01-30T01:44:20;101220.44;;;11.98;67.06
36234;BME280;43467;50.890;5.982;2024-01-30T01:46:45;101221.13;;;12.03;66.87
36234;BME280;43467;50.890;5.982;2024-01-30T01:49:11;101222.72;;;12.07;66.85
36234;BME280;43467;50.890;5.982;2024-01-30T01:51:37;101214.84;;;12.05;67.09
36234;BME280;43467;50.890;5.982;2024-01-30T01:54:05;101212.81;;;12.12;66.80
36234;BME280;43467;50.890;5.982;2024-01-30T01:56:31;101189.97;;;12.08;66.65
36234;BME280;43467;50.890;5.982;2024-01-30T01:59:00;101214.41;;;12.18;66.65
36234;BME280;43467;50.890;5.982;2024-01-30T02:01:31;101208.22;;;12.17;66.61
36234;BME280;43467;50.890;5.982;2024-01-30T02:03:58;101208.16;;;12.19;66.68
36234;BME280;43467;50.890;5.982;2024-01-30T02:06:24;101211.78;;;12.16;66.71
36234;BME280;43467;50.890;5.982;2024-01-30T02:08:49;101206.31;;;12.21;66.59
36234;BME280;43467;50.890;5.982;2024-01-30T02:11:16;101200.97;;;12.22;66.58
36234;BME280;43467;50.890;5.982;2024-01-30T02:13:42;101202.59;;;12.26;66.78
36234;BME280;43467;50.890;5.982;2024-01-30T02:16:07;101203.53;;;12.24;66.50
36234;BME280;43467;50.890;5.982;2024-01-30T02:18:32;101200.13;;;12.20;66.71
36234;BME280;43467;50.890;5.982;2024-01-30T02:20:58;101199.09;;;12.24;66.54
36234;BME280;43467;50.890;5.982;2024-01-30T02:23:27;101197.94;;;12.31;66.50
36234;BME280;43467;50.890;5.982;2024-01-30T02:25:52;101199.94;;;12.26;66.61
36234;BME280;43467;50.890;5.982;2024-01-30T02:28:19;101196.31;;;12.27;66.51
36234;BME280;43467;50.890;5.982;2024-01-30T02:30:45;101196.28;;;12.29;66.81
36234;BME280;43467;50.890;5.982;2024-01-30T02:33:11;101194.16;;;12.38;66.22
36234;BME280;43467;50.890;5.982;2024-01-30T02:35:36;101190.50;;;12.41;66.22
36234;BME280;43467;50.890;5.982;2024-01-30T02:38:02;101194.94;;;12.40;65.91
36234;BME280;43467;50.890;5.982;2024-01-30T02:40:27;101192.38;;;12.39;66.33
36234;BME280;43467;50.890;5.982;2024-01-30T02:42:53;101191.25;;;12.44;65.90
36234;BME280;43467;50.890;5.982;2024-01-30T02:45:18;101191.31;;;12.43;66.13
36234;BME280;43467;50.890;5.982;2024-01-30T02:47:44;101192.38;;;12.39;66.47
36234;BME280;43467;50.890;5.982;2024-01-30T02:50:09;101187.06;;;12.39;66.39
36234;BME280;43467;50.890;5.982;2024-01-30T02:52:35;101184.50;;;12.36;66.57
36234;BME280;43467;50.890;5.982;2024-01-30T02:55:01;101189.75;;;12.37;66.64
36234;BME280;43467;50.890;5.982;2024-01-30T02:57:27;101187.84;;;12.41;66.37
36234;BME280;43467;50.890;5.982;2024-01-30T02:59:52;101187.09;;;12.37;66.52
36234;BME280;43467;50.890;5.982;2024-01-30T03:02:18;101178.13;;;12.40;66.28
36234;BME280;43467;50.890;5.982;2024-01-30T03:04:43;101177.22;;;12.41;66.68
36234;BME280;43467;50.890;5.982;2024-01-30T03:07:09;101183.22;;;12.46;66.62
36234;BME280;43467;50.890;5.982;2024-01-30T03:09:36;101173.56;;;12.43;66.62
36234;BME280;43467;50.890;5.982;2024-01-30T03:12:01;101175.97;;;12.51;66.25
36234;BME280;43467;50.890;5.982;2024-01-30T03:14:26;101180.50;;;12.47;66.43
36234;BME280;43467;50.890;5.982;2024-01-30T03:16:52;101171.56;;;12.50;66.21
36234;BME280;43467;50.890;5.982;2024-01-30T03:19:17;101176.00;;;12.49;66.26
36234;BME280;43467;50.890;5.982;2024-01-30T03:21:44;101171.50;;;12.51;66.36
36234;BME280;43467;50.890;5.982;2024-01-30T03:24:09;101171.75;;;12.45;66.58
36234;BME280;43467;50.890;5.982;2024-01-30T03:26:35;101168.16;;;12.46;66.63
36234;BME280;43467;50.890;5.982;2024-01-30T03:29:00;101171.63;;;12.48;66.56
36234;BME280;43467;50.890;5.982;2024-01-30T03:31:25;101157.38;;;12.51;66.58
36234;BME280;43467;50.890;5.982;2024-01-30T03:33:51;101154.63;;;12.52;66.38
36234;BME280;43467;50.890;5.982;2024-01-30T03:36:16;101154.50;;;12.55;66.30
36234;BME280;43467;50.890;5.982;2024-01-30T03:38:41;101152.78;;;12.54;66.45
36234;BME280;43467;50.890;5.982;2024-01-30T03:41:08;101145.34;;;12.41;66.80
36234;BME280;43467;50.890;5.982;2024-01-30T03:43:34;101144.75;;;12.34;67.51
36234;BME280;43467;50.890;5.982;2024-01-30T03:46:01;101157.53;;;12.23;67.85
36234;BME280;43467;50.890;5.982;2024-01-30T03:48:26;101153.16;;;12.22;68.19
36234;BME280;43467;50.890;5.982;2024-01-30T03:50:52;101148.94;;;12.17;68.41
36234;BME280;43467;50.890;5.982;2024-01-30T03:53:17;101152.50;;;12.16;68.34
36234;BME280;43467;50.890;5.982;2024-01-30T03:55:42;101157.78;;;12.17;68.67
36234;BME280;43467;50.890;5.982;2024-01-30T03:58:08;101149.25;;;12.09;68.86
36234;BME280;43467;50.890;5.982;2024-01-30T04:00:33;101154.53;;;12.09;68.95
36234;BME280;43467;50.890;5.982;2024-01-30T04:02:59;101154.66;;;12.06;69.08
36234;BME280;43467;50.890;5.982;2024-01-30T04:05:25;101148.31;;;12.10;69.02
36234;BME280;43467;50.890;5.982;2024-01-30T04:07:50;101151.91;;;12.09;69.04
36234;BME280;43467;50.890;5.982;2024-01-30T04:10:16;101148.38;;;12.08;69.39
36234;BME280;43467;50.890;5.982;2024-01-30T04:12:41;101152.59;;;12.14;69.17
36234;BME280;43467;50.890;5.982;2024-01-30T04:15:07;101145.75;;;12.07;69.64
36234;BME280;43467;50.890;5.982;2024-01-30T04:17:33;101145.75;;;12.07;69.63
36234;BME280;43467;50.890;5.982;2024-01-30T04:19:59;101149.06;;;12.14;69.68
36234;BME280;43467;50.890;5.982;2024-01-30T04:22:24;101153.50;;;12.13;69.83
36234;BME280;43467;50.890;5.982;2024-01-30T04:24:49;101145.66;;;12.10;69.97
36234;BME280;43467;50.890;5.982;2024-01-30T04:27:15;101146.28;;;12.17;69.79
36234;BME280;43467;50.890;5.982;2024-01-30T04:29:40;101146.47;;;12.12;69.94
36234;BME280;43467;50.890;5.982;2024-01-30T04:32:06;101149.88;;;12.16;69.88
36234;BME280;43467;50.890;5.982;2024-01-30T04:34:31;101146.34;;;12.15;69.72
36234;BME280;43467;50.890;5.982;2024-01-30T04:36:57;101144.63;;;12.14;70.00
36234;BME280;43467;50.890;5.982;2024-01-30T04:39:22;101145.38;;;12.18;70.05
36234;BME280;43467;50.890;5.982;2024-01-30T04:41:47;101146.13;;;12.21;70.00
36234;BME280;43467;50.890;5.982;2024-01-30T04:44:13;101136.41;;;12.20;69.90
36234;BME280;43467;50.890;5.982;2024-01-30T04:46:39;101134.75;;;12.18;70.26
36234;BME280;43467;50.890;5.982;2024-01-30T04:49:04;101130.06;;;12.24;70.21
36234;BME280;43467;50.890;5.982;2024-01-30T04:51:30;101128.16;;;12.28;69.81
36234;BME280;43467;50.890;5.982;2024-01-30T04:53:55;101133.41;;;12.29;69.97
36234;BME280;43467;50.890;5.982;2024-01-30T04:56:21;101135.06;;;12.32;69.64
36234;BME280;43467;50.890;5.982;2024-01-30T04:58:46;101132.59;;;12.27;70.20
36234;BME280;43467;50.890;5.982;2024-01-30T05:01:18;101130.72;;;12.31;70.15
36234;BME280;43467;50.890;5.982;2024-01-30T05:03:43;101141.22;;;12.34;69.87
36234;BME280;43467;50.890;5.982;2024-01-30T05:06:09;101135.72;;;12.38;69.88
36234;BME280;43467;50.890;5.982;2024-01-30T05:08:34;101136.06;;;12.29;70.23
36234;BME280;43467;50.890;5.982;2024-01-30T05:11:05;101134.22;;;12.31;70.28
36234;BME280;43467;50.890;5.982;2024-01-30T05:13:31;101136.81;;;12.33;70.13
36234;BME280;43467;50.890;5.982;2024-01-30T05:15:57;101134.38;;;12.27;70.53
36234;BME280;43467;50.890;5.982;2024-01-30T05:18:22;101138.91;;;12.25;70.33
36234;BME280;43467;50.890;5.982;2024-01-30T05:20:49;101141.38;;;12.29;70.42
36234;BME280;43467;50.890;5.982;2024-01-30T05:23:15;101141.44;;;12.28;70.45
36234;BME280;43467;50.890;5.982;2024-01-30T05:25:40;101126.41;;;12.27;70.56
36234;BME280;43467;50.890;5.982;2024-01-30T05:28:06;101127.28;;;12.27;70.72
36234;BME280;43467;50.890;5.982;2024-01-30T05:30:31;101122.78;;;12.29;70.68
36234;BME280;43467;50.890;5.982;2024-01-30T05:32:56;101114.00;;;12.27;71.03
36234;BME280;43467;50.890;5.982;2024-01-30T05:35:22;101119.22;;;12.30;70.74
36234;BME280;43467;50.890;5.982;2024-01-30T05:37:48;101118.19;;;12.34;70.90
36234;BME280;43467;50.890;5.982;2024-01-30T05:40:14;101111.81;;;12.38;70.68
36234;BME280;43467;50.890;5.982;2024-01-30T05:42:40;101112.75;;;12.37;70.78
36234;BME280;43467;50.890;5.982;2024-01-30T05:45:05;101114.19;;;12.46;70.47
36234;BME280;43467;50.890;5.982;2024-01-30T05:47:31;101110.81;;;12.41;70.70
36234;BME280;43467;50.890;5.982;2024-01-30T05:49:56;101115.13;;;12.43;70.70
36234;BME280;43467;50.890;5.982;2024-01-30T05:52:22;101114.09;;;12.47;70.77
36234;BME280;43467;50.890;5.982;2024-01-30T05:54:47;101119.34;;;12.49;70.47
36234;BME280;43467;50.890;5.982;2024-01-30T05:57:13;101126.03;;;12.37;71.18
36234;BME280;43467;50.890;5.982;2024-01-30T05:59:38;101115.69;;;12.30;71.36
36234;BME280;43467;50.890;5.982;2024-01-30T06:02:04;101125.28;;;12.34;71.30
36234;BME280;43467;50.890;5.982;2024-01-30T06:04:29;101127.84;;;12.35;71.61
36234;BME280;43467;50.890;5.982;2024-01-30T06:06:55;101125.31;;;12.32;71.41
36234;BME280;43467;50.890;5.982;2024-01-30T06:09:20;101119.88;;;12.35;71.70
36234;BME280;43467;50.890;5.982;2024-01-30T06:11:46;101118.78;;;12.41;71.18
36234;BME280;43467;50.890;5.982;2024-01-30T06:14:11;101120.44;;;12.43;71.37
36234;BME280;43467;50.890;5.982;2024-01-30T06:16:36;101123.00;;;12.46;71.09
36234;BME280;43467;50.890;5.982;2024-01-30T06:19:02;101121.50;;;12.39;71.26
36234;BME280;43467;50.890;5.982;2024-01-30T06:21:27;101122.16;;;12.46;71.00
36234;BME280;43467;50.890;5.982;2024-01-30T06:23:53;101118.84;;;12.39;71.42
36234;BME280;43467;50.890;5.982;2024-01-30T06:26:18;101122.53;;;12.35;71.71
36234;BME280;43467;50.890;5.982;2024-01-30T06:28:43;101119.09;;;12.33;71.76
36234;BME280;43467;50.890;5.982;2024-01-30T06:31:09;101124.28;;;12.36;71.89
36234;BME280;43467;50.890;5.982;2024-01-30T06:33:35;101124.53;;;12.30;72.28
36234;BME280;43467;50.890;5.982;2024-01-30T06:36:00;101121.81;;;12.32;72.40
36234;BME280;43467;50.890;5.982;2024-01-30T06:38:25;101121.94;;;12.29;72.13
36234;BME280;43467;50.890;5.982;2024-01-30T06:40:51;101124.81;;;12.23;72.76
36234;BME280;43467;50.890;5.982;2024-01-30T06:43:16;101106.34;;;12.20;73.00
36234;BME280;43467;50.890;5.982;2024-01-30T06:45:42;101112.53;;;12.20;72.93
36234;BME280;43467;50.890;5.982;2024-01-30T06:48:07;101111.72;;;12.18;73.11
36234;BME280;43467;50.890;5.982;2024-01-30T06:50:33;101112.53;;;12.20;73.03
36234;BME280;43467;50.890;5.982;2024-01-30T06:52:58;101111.47;;;12.24;73.04
36234;BME280;43467;50.890;5.982;2024-01-30T06:55:24;101108.81;;;12.24;72.86
36234;BME280;43467;50.890;5.982;2024-01-30T06:57:49;101113.78;;;12.33;72.63
36234;BME280;43467;50.890;5.982;2024-01-30T07:00:15;101114.84;;;12.29;72.98
36234;BME280;43467;50.890;5.982;2024-01-30T07:02:41;101118.22;;;12.33;72.61
36234;BME280;43467;50.890;5.982;2024-01-30T07:05:07;101118.09;;;12.36;72.59
36234;BME280;43467;50.890;5.982;2024-01-30T07:07:32;101119.97;;;12.34;72.60
36234;BME280;43467;50.890;5.982;2024-01-30T07:09:58;101124.41;;;12.33;72.87
36234;BME280;43467;50.890;5.982;2024-01-30T07:12:23;101136.69;;;12.36;72.40
36234;BME280;43467;50.890;5.982;2024-01-30T07:14:50;101134.97;;;12.35;72.37
36234;BME280;43467;50.890;5.982;2024-01-30T07:17:16;101138.47;;;12.35;72.59
36234;BME280;43467;50.890;5.982;2024-01-30T07:19:42;101127.03;;;12.35;72.39
36234;BME280;43467;50.890;5.982;2024-01-30T07:22:08;101135.66;;;12.40;72.07
36234;BME280;43467;50.890;5.982;2024-01-30T07:24:33;101137.44;;;12.39;72.02
36234;BME280;43467;50.890;5.982;2024-01-30T07:26:59;101140.56;;;12.50;71.77
36234;BME280;43467;50.890;5.982;2024-01-30T07:29:24;101147.56;;;12.51;71.71
36234;BME280;43467;50.890;5.982;2024-01-30T07:31:49;101149.41;;;12.51;71.50
36234;BME280;43467;50.890;5.982;2024-01-30T07:34:15;101151.84;;;12.55;70.97
36234;BME280;43467;50.890;5.982;2024-01-30T07:36:40;101151.19;;;12.50;71.22
36234;BME280;43467;50.890;5.982;2024-01-30T07:39:06;101152.97;;;12.50;71.44
36234;BME280;43467;50.890;5.982;2024-01-30T07:41:31;101151.38;;;12.46;71.23
36234;BME280;43467;50.890;5.982;2024-01-30T07:43:57;101147.25;;;12.37;71.47
36234;BME280;43467;50.890;5.982;2024-01-30T07:46:23;101173.53;;;12.45;71.37
36234;BME280;43467;50.890;5.982;2024-01-30T07:48:48;101169.78;;;12.50;71.47
36234;BME280;43467;50.890;5.982;2024-01-30T07:51:13;101165.38;;;12.49;71.14
36234;BME280;43467;50.890;5.982;2024-01-30T07:53:39;101167.13;;;12.50;71.01
36234;BME280;43467;50.890;5.982;2024-01-30T07:56:05;101165.44;;;12.48;71.26
36234;BME280;43467;50.890;5.982;2024-01-30T07:58:31;101178.84;;;12.45;71.06
36234;BME280;43467;50.890;5.982;2024-01-30T08:00:56;101186.22;;;12.37;71.49
36234;BME280;43467;50.890;5.982;2024-01-30T08:03:23;101193.28;;;12.38;71.54
36234;BME280;43467;50.890;5.982;2024-01-30T08:05:49;101181.84;;;12.36;71.45
36234;BME280;43467;50.890;5.982;2024-01-30T08:08:14;101199.22;;;12.44;71.27
36234;BME280;43467;50.890;5.982;2024-01-30T08:10:40;101192.00;;;12.48;71.20
36234;BME280;43467;50.890;5.982;2024-01-30T08:13:05;101200.50;;;12.57;70.66
36234;BME280;43467;50.890;5.982;2024-01-30T08:15:30;101205.50;;;12.65;70.47
36234;BME280;43467;50.890;5.982;2024-01-30T08:17:56;101214.34;;;12.66;70.40
36234;BME280;43467;50.890;5.982;2024-01-30T08:20:24;101215.25;;;12.65;70.27
36234;BME280;43467;50.890;5.982;2024-01-30T08:22:49;101215.34;;;12.63;70.49
36234;BME280;43467;50.890;5.982;2024-01-30T08:25:14;101211.91;;;12.59;70.46
36234;BME280;43467;50.890;5.982;2024-01-30T08:27:40;101225.88;;;12.65;70.62
36234;BME280;43467;50.890;5.982;2024-01-30T08:30:06;101233.97;;;12.62;70.82
36234;BME280;43467;50.890;5.982;2024-01-30T08:32:32;101237.56;;;12.61;70.98
36234;BME280;43467;50.890;5.982;2024-01-30T08:34:57;101221.88;;;12.54;70.96
36234;BME280;43467;50.890;5.982;2024-01-30T08:37:23;101220.00;;;12.56;70.72
36234;BME280;43467;50.890;5.982;2024-01-30T08:39:48;101239.25;;;12.63;70.90
36234;BME280;43467;50.890;5.982;2024-01-30T08:42:14;101230.13;;;12.70;70.54
36234;BME280;43467;50.890;5.982;2024-01-30T08:44:39;101236.28;;;12.71;70.75
36234;BME280;43467;50.890;5.982;2024-01-30T08:47:05;101242.53;;;12.70;70.58
36234;BME280;43467;50.890;5.982;2024-01-30T08:49:31;101241.03;;;12.63;70.80
36234;BME280;43467;50.890;5.982;2024-01-30T08:51:56;101228.53;;;12.65;70.75
36234;BME280;43467;50.890;5.982;2024-01-30T08:54:23;101242.66;;;12.67;70.84
36234;BME280;43467;50.890;5.982;2024-01-30T08:56:49;101248.88;;;12.66;70.77
36234;BME280;43467;50.890;5.982;2024-01-30T08:59:14;101247.00;;;12.68;70.91
36234;BME280;43467;50.890;5.982;2024-01-30T09:01:40;101254.94;;;12.69;70.82
36234;BME280;43467;50.890;5.982;2024-01-30T09:04:05;101249.31;;;12.77;70.53
36234;BME280;43467;50.890;5.982;2024-01-30T09:06:31;101252.16;;;12.72;70.67
36234;BME280;43467;50.890;5.982;2024-01-30T09:08:56;101247.50;;;12.79;70.79
36234;BME280;43467;50.890;5.982;2024-01-30T09:11:23;101247.84;;;12.70;70.89
36234;BME280;43467;50.890;5.982;2024-01-30T09:13:48;101261.91;;;12.72;71.25
36234;BME280;43467;50.890;5.982;2024-01-30T09:16:14;101264.47;;;12.75;71.31
36234;BME280;43467;50.890;5.982;2024-01-30T09:18:41;101264.09;;;12.84;71.12
36234;BME280;43467;50.890;5.982;2024-01-30T09:21:06;101264.94;;;12.86;70.92
36234;BME280;43467;50.890;5.982;2024-01-30T09:23:31;101260.53;;;12.85;71.05
36234;BME280;43467;50.890;5.982;2024-01-30T09:25:57;101267.19;;;12.73;71.71
36234;BME280;43467;50.890;5.982;2024-01-30T09:28:23;101280.13;;;12.82;71.93
36234;BME280;43467;50.890;5.982;2024-01-30T09:30:48;101275.97;;;12.75;71.93
36234;BME280;43467;50.890;5.982;2024-01-30T09:33:14;101283.19;;;12.72;72.04
36234;BME280;43467;50.890;5.982;2024-01-30T09:35:39;101282.34;;;12.71;72.39
36234;BME280;43467;50.890;5.982;2024-01-30T09:38:05;101276.06;;;12.72;72.27
36234;BME280;43467;50.890;5.982;2024-01-30T09:40:30;101280.72;;;12.67;72.26
36234;BME280;43467;50.890;5.982;2024-01-30T09:42:56;101283.75;;;12.80;72.04
36234;BME280;43467;50.890;5.982;2024-01-30T09:45:24;101289.88;;;12.82;71.98
36234;BME280;43467;50.890;5.982;2024-01-30T09:47:50;101276.59;;;12.82;71.85
36234;BME280;43467;50.890;5.982;2024-01-30T09:50:17;101278.81;;;12.71;71.99
36234;BME280;43467;50.890;5.982;2024-01-30T09:52:46;101283.75;;;12.80;71.91
36234;BME280;43467;50.890;5.982;2024-01-30T09:55:12;101283.47;;;12.87;71.96
36234;BME280;43467;50.890;5.982;2024-01-30T09:57:38;101283.13;;;12.73;72.40
36234;BME280;43467;50.890;5.982;2024-01-30T10:00:04;101276.78;;;12.77;72.16
36234;BME280;43467;50.890;5.982;2024-01-30T10:02:31;101290.22;;;12.73;72.46
36234;BME280;43467;50.890;5.982;2024-01-30T10:04:56;101281.38;;;12.72;72.97
36234;BME280;43467;50.890;5.982;2024-01-30T10:07:22;101290.53;;;12.65;73.31
36234;BME280;43467;50.890;5.982;2024-01-30T10:09:48;101288.91;;;12.61;73.32
36234;BME280;43467;50.890;5.982;2024-01-30T10:12:15;101281.63;;;12.66;73.24
36234;BME280;43467;50.890;5.982;2024-01-30T10:14:43;101294.16;;;12.63;73.48
36234;BME280;43467;50.890;5.982;2024-01-30T10:17:10;101291.56;;;12.61;73.79
36234;BME280;43467;50.890;5.982;2024-01-30T10:19:37;101299.69;;;12.56;74.17
36234;BME280;43467;50.890;5.982;2024-01-30T10:22:04;101289.91;;;12.58;74.10
36234;BME280;43467;50.890;5.982;2024-01-30T10:24:30;101286.41;;;12.56;74.53
36234;BME280;43467;50.890;5.982;2024-01-30T10:26:55;101291.72;;;12.56;74.49
36234;BME280;43467;50.890;5.982;2024-01-30T10:29:21;101292.38;;;12.63;74.33
36234;BME280;43467;50.890;5.982;2024-01-30T10:31:57;101297.03;;;12.56;75.05
36234;BME280;43467;50.890;5.982;2024-01-30T10:34:23;101306.72;;;12.59;75.19
36234;BME280;43467;50.890;5.982;2024-01-30T10:36:50;101304.88;;;12.59;74.75
36234;BME280;43467;50.890;5.982;2024-01-30T10:39:22;101302.72;;;12.71;74.25
36234;BME280;43467;50.890;5.982;2024-01-30T10:41:51;101309.94;;;12.67;74.70
36234;BME280;43467;50.890;5.982;2024-01-30T10:44:22;101310.91;;;12.65;74.98
36234;BME280;43467;50.890;5.982;2024-01-30T10:46:56;101311.25;;;12.55;75.92
36234;BME280;43467;50.890;5.982;2024-01-30T10:49:26;101309.38;;;12.59;76.07
36234;BME280;43467;50.890;5.982;2024-01-30T10:51:52;101311.91;;;12.62;75.96
36234;BME280;43467;50.890;5.982;2024-01-30T10:54:17;101313.09;;;12.53;77.35
36234;BME280;43467;50.890;5.982;2024-01-30T10:56:45;101317.81;;;12.45;77.39
36234;BME280;43467;50.890;5.982;2024-01-30T10:59:11;101318.81;;;12.43;77.33
36234;BME280;43467;50.890;5.982;2024-01-30T11:01:38;101321.34;;;12.46;77.29
36234;BME280;43467;50.890;5.982;2024-01-30T11:04:04;101307.31;;;12.42;77.04
36234;BME280;43467;50.890;5.982;2024-01-30T11:06:30;101311.59;;;12.46;77.02
36234;BME280;43467;50.890;5.982;2024-01-30T11:09:05;101304.81;;;12.38;77.47
36234;BME280;43467;50.890;5.982;2024-01-30T11:11:55;101303.91;;;12.39;77.57
36234;BME280;43467;50.890;5.982;2024-01-30T11:14:25;101308.34;;;12.38;77.54
36234;BME280;43467;50.890;5.982;2024-01-30T11:16:51;101310.34;;;12.32;78.08
36234;BME280;43467;50.890;5.982;2024-01-30T11:19:23;101305.00;;;12.33;78.06
36234;BME280;43467;50.890;5.982;2024-01-30T11:21:50;101305.53;;;12.43;77.96
36234;BME280;43467;50.890;5.982;2024-01-30T11:24:20;101316.31;;;12.38;78.11
36234;BME280;43467;50.890;5.982;2024-01-30T11:26:48;101312.63;;;12.42;77.87
36234;BME280;43467;50.890;5.982;2024-01-30T11:29:14;101315.44;;;12.38;78.27
36234;BME280;43467;50.890;5.982;2024-01-30T11:31:50;101310.25;;;12.35;78.66
36234;BME280;43467;50.890;5.982;2024-01-30T11:34:16;101305.09;;;12.30;78.83
36234;BME280;43467;50.890;5.982;2024-01-30T11:36:43;101314.00;;;12.29;79.29
36234;BME280;43467;50.890;5.982;2024-01-30T11:39:11;101316.84;;;12.23;79.47
36234;BME280;43467;50.890;5.982;2024-01-30T11:41:38;101310.72;;;12.21;79.73
36234;BME280;43467;50.890;5.982;2024-01-30T11:44:05;101316.09;;;12.20;80.08
36234;BME280;43467;50.890;5.982;2024-01-30T11:46:30;101316.75;;;12.26;79.92
36234;BME280;43467;50.890;5.982;2024-01-30T11:48:56;101306.72;;;12.34;79.56
36234;BME280;43467;50.890;5.982;2024-01-30T11:51:22;101311.16;;;12.34;79.61
36234;BME280;43467;50.890;5.982;2024-01-30T11:53:51;101308.44;;;12.35;79.64
36234;BME280;43467;50.890;5.982;2024-01-30T11:56:16;101307.69;;;12.32;80.16
36234;BME280;43467;50.890;5.982;2024-01-30T11:58:42;101301.25;;;12.39;79.80
36234;BME280;43467;50.890;5.982;2024-01-30T12:01:09;101300.16;;;12.44;79.84
36234;BME280;43467;50.890;5.982;2024-01-30T12:03:35;101293.81;;;12.48;79.69
36234;BME280;43467;50.890;5.982;2024-01-30T12:06:02;101301.66;;;12.51;79.50
36234;BME280;43467;50.890;5.982;2024-01-30T12:08:28;101298.06;;;12.52;79.36
36234;BME280;43467;50.890;5.982;2024-01-30T12:10:57;101294.03;;;12.42;79.91
36234;BME280;43467;50.890;5.982;2024-01-30T12:13:32;101295.81;;;12.42;79.96
36234;BME280;43467;50.890;5.982;2024-01-30T12:15:58;101296.78;;;12.39;80.28
36234;BME280;43467;50.890;5.982;2024-01-30T12:18:23;101300.09;;;12.46;80.08
36234;BME280;43467;50.890;5.982;2024-01-30T12:21:01;101290.34;;;12.46;79.93
36234;BME280;43467;50.890;5.982;2024-01-30T12:23:27;101299.19;;;12.47;80.08
36234;BME280;43467;50.890;5.982;2024-01-30T12:25:53;101295.88;;;12.40;80.31
36234;BME280;43467;50.890;5.982;2024-01-30T12:28:20;101297.50;;;12.44;80.26
36234;BME280;43467;50.890;5.982;2024-01-30T12:30:46;101295.88;;;12.40;80.68
36234;BME280;43467;50.890;5.982;2024-01-30T12:33:18;101305.75;;;12.37;80.55
36234;BME280;43467;50.890;5.982;2024-01-30T12:35:47;101295.13;;;12.37;80.45
36234;BME280;43467;50.890;5.982;2024-01-30T12:38:15;101297.91;;;12.34;81.02
36234;BME280;43467;50.890;5.982;2024-01-30T12:40:41;101303.13;;;12.35;80.90
36234;BME280;43467;50.890;5.982;2024-01-30T12:43:06;101295.34;;;12.31;81.14
36234;BME280;43467;50.890;5.982;2024-01-30T12:45:32;101311.69;;;12.43;80.72